Thursday, July 18, 2019, 11:44 PM EDT
Back to Local

KBJJ, Wooster Wayne County Airport

Location: Smithville, OH, United States Lat: 40.867
Local Time: 11:44 PM EDT ( 3:44 GMT) Lon: -81.883
Time Zone: US/Eastern Elev: 1138 ft

Show me the last for .
Show Decoded

2019-07-18 22:56 METAR KBJJ 190256Z AUTO 22006KT 10SM CLR 25/23 A2994 RMK AO2 SLP131 T02500228
                 51021 =
2019-07-18 21:56 METAR KBJJ 190156Z AUTO 21004KT 10SM CLR 25/23 A2993 RMK AO2 SLP125 T02500228 =
2019-07-18 20:56 METAR KBJJ 190056Z AUTO 18006KT 10SM CLR 27/23 A2991 RMK AO2 SLP118 T02670228 =
2019-07-18 19:56 METAR KBJJ 182356Z AUTO 20005KT 10SM CLR 28/23 A2988 RMK AO2 SLP109 60000
                 T02780228 10311 20272 55019 =
2019-07-18 18:56 METAR KBJJ 182256Z AUTO 22006KT 10SM FEW110 28/22 A2986 RMK AO2 RAB37E46 PRESRR
                 SLP103 P0000 T02780217 =
2019-07-18 17:56 METAR KBJJ 182156Z AUTO 27007KT 10SM CLR 29/22 A2994 RMK AO2 LTG DSNT W AND NW
                 SLP129 T02940222 =
2019-07-18 16:56 METAR KBJJ 182056Z AUTO 31003KT 10SM FEW042 31/22 A2994 RMK AO2 SLP128 T03060217
                 57018 =
2019-07-18 15:56 METAR KBJJ 181956Z AUTO 24007KT 10SM FEW037 31/22 A2996 RMK AO2 SLP135 T03060217
                 =
2019-07-18 14:56 METAR KBJJ 181856Z AUTO 29009KT 10SM FEW035 SCT042 BKN065 30/23 A2998 RMK AO2
                 SLP142 T03000228 =
2019-07-18 13:56 METAR KBJJ 181756Z AUTO 30006KT 10SM FEW033 29/22 A2999 RMK AO2 SLP148 T02940222
                 10294 20217 53000 =
2019-07-18 12:56 METAR KBJJ 181656Z AUTO 27004KT 10SM CLR 29/22 A2999 RMK AO2 SLP147 T02890217 =
2019-07-18 11:56 METAR KBJJ 181556Z AUTO 26003KT 10SM CLR 28/22 A2998 RMK AO2 SLP144 T02830222 =
2019-07-18 10:56 METAR KBJJ 181456Z AUTO 26006KT 10SM FEW019 26/22 A2999 RMK AO2 SLP148 T02610222
                 50001 =
2019-07-18 09:56 METAR KBJJ 181356Z AUTO 00000KT 10SM CLR 26/23 A3000 RMK AO2 SLP149 T02560228 =
2019-07-18 08:56 METAR KBJJ 181256Z AUTO 00000KT 10SM CLR 24/21 A3001 RMK AO2 SLP152 T02390211 =
2019-07-18 07:56 METAR KBJJ 181156Z AUTO 21003KT 3SM BR SCT001 22/22 A2999 RMK AO2 SLP147 70027
                 T02170217 10217 20200 53010 =
2019-07-18 07:52 METAR KBJJ 181152Z AUTO 00000KT 1 1/2SM BR BKN001 22/22 A2999 RMK AO2 =
2019-07-18 06:56 METAR KBJJ 181056Z AUTO 00000KT 1/4SM FG VV001 20/20 A2997 RMK AO2 SLP140
                 T02000200 =
2019-07-18 06:37 METAR KBJJ 181037Z AUTO 09003KT 1/2SM FG VV004 20/20 A2996 RMK AO2 T02000200 =
2019-07-18 06:30 METAR KBJJ 181030Z AUTO 00000KT 1SM BR VV003 20/20 A2997 RMK AO2 T02000200 =
2019-07-18 06:25 METAR KBJJ 181025Z AUTO 00000KT 1 1/2SM BR BKN004 20/20 A2997 RMK AO2 T02000200
                 =
2019-07-18 06:04 METAR KBJJ 181004Z AUTO 00000KT 1/4SM FG VV004 21/21 A2996 RMK AO2 T02060206 =
2019-07-18 05:56 METAR KBJJ 180956Z AUTO 00000KT 1/2SM FG VV006 21/21 A2996 RMK AO2 SLP137
                 T02060206 =
2019-07-18 05:20 METAR KBJJ 180920Z AUTO 27004KT 1/4SM FG VV001 21/21 A2996 RMK AO2 T02110211 =
2019-07-18 05:12 METAR KBJJ 180912Z AUTO 28003KT 1 3/4SM BR OVC001 21/21 A2996 RMK AO2 VIS 3/4V3
                 T02110211 =
2019-07-18 04:56 METAR KBJJ 180856Z AUTO 00000KT 5SM BR OVC001 21/21 A2996 RMK AO2 SLP136
                 T02110211 56003 =
2019-07-18 04:41 METAR KBJJ 180841Z AUTO 27003KT 7SM OVC003 21/21 A2995 RMK AO2 CIG 001V005
                 T02110206 =
2019-07-18 04:32 METAR KBJJ 180832Z AUTO 00000KT 6SM BR BKN005 21/21 A2996 RMK AO2 T02060206 =
2019-07-18 04:23 METAR KBJJ 180823Z AUTO 30003KT 7SM SCT005 20/20 A2996 RMK AO2 T02000200 =
2019-07-18 03:56 METAR KBJJ 180756Z AUTO 27003KT 5SM BR CLR 20/20 A2996 RMK AO2 SLP136 T02000200
                 =
2019-07-18 02:56 METAR KBJJ 180656Z AUTO 24005KT 8SM CLR 21/21 A2996 RMK AO2 SLP137 T02060206 =
2019-07-18 01:56 METAR KBJJ 180556Z AUTO 35005KT 10SM CLR 22/21 A2997 RMK AO2 SLP139 T02170206
                 10272 20211 50004 =
2019-07-18 01:10 METAR KBJJ 180510Z AUTO 00000KT 10SM SCT014 22/21 A2997 RMK AO2 T02170211 =
2019-07-18 01:03 METAR KBJJ 180503Z AUTO 00000KT 10SM BKN014 22/21 A2997 RMK AO2 T02170211 =
2019-07-18 00:56 METAR KBJJ 180456Z AUTO 00000KT 10SM SCT014 22/21 A2997 RMK AO2 SLP140 T02170211
                 402830206 =
2019-07-17 23:56 METAR KBJJ 180356Z AUTO 00000KT 10SM CLR 22/22 A2995 RMK AO2 SLP135 T02220217 =

Support USWX by starting your Amazon purchase here.